.
WxDataArchive / Data Records for 2011-07-04
2011-07-03 July 2011 2011-07-05

Data Records for Monday, 04 July 2011

Time	Temp	Chill	HIndex	Humid	Dewpt	 Wind 	HiWind	WindDir	Rain 	Barom 
-----	----	-----	------	-----	-----	------	------	-------	-----	----- 
00:00	74.4	74.4	74.4	66	62.3	0	1	315	0.00	29.939 
00:05	74.2	74.2	74.2	67	62.5	0	1	315	0.00	29.939 
00:10	74.0	74.0	74.0	67	62.3	0	1	315	0.00	29.939 
00:15	73.9	73.9	73.9	68	62.7	0	2	315	0.00	29.933 
00:20	73.9	73.9	73.9	68	62.7	0	0	---	0.00	29.933 
00:25	73.7	73.7	73.7	68	62.5	0	1	315	0.00	29.933 
00:30	73.5	73.5	73.5	69	62.7	0	0	---	0.00	29.930 
00:35	73.3	73.3	73.3	69	62.5	0	0	---	0.00	29.930 
00:40	73.2	73.2	73.2	69	62.4	0	0	---	0.00	29.930 
00:45	73.2	73.2	73.2	69	62.4	0	0	---	0.00	29.934 
00:50	73.0	73.0	73.0	69	62.2	0	0	---	0.00	29.934 
00:55	72.8	72.8	72.8	70	62.4	0	0	---	0.00	29.934 
01:00	72.7	72.7	72.7	70	62.3	0	0	---	0.00	29.929 
01:05	72.5	72.5	72.5	70	62.1	0	0	---	0.00	29.929 
01:10	72.3	72.3	72.3	71	62.4	0	0	---	0.00	29.929 
01:15	72.1	72.1	72.1	71	62.2	0	0	---	0.00	29.924 
01:20	72.1	72.1	72.1	71	62.2	0	0	---	0.00	29.924 
01:25	72.0	72.0	72.0	71	62.1	0	0	---	0.00	29.924 
01:30	72.0	72.0	72.0	72	62.5	0	0	---	0.00	29.922 
01:35	71.8	71.8	71.8	71	61.9	0	1	315	0.00	29.922 
01:40	71.8	71.8	71.8	72	62.3	0	0	---	0.00	29.922 
01:45	71.6	71.6	71.6	72	62.1	0	0	---	0.00	29.912 
01:50	71.5	71.5	71.5	72	62.0	0	1	315	0.00	29.912 
01:55	71.3	71.3	71.3	71	61.4	0	1	315	0.00	29.912 
02:00	71.1	71.1	71.1	70	60.8	0	1	315	0.00	29.909 
02:05	71.1	71.1	71.1	69	60.4	0	0	---	0.00	29.909 
02:10	71.1	71.1	71.1	70	60.8	0	0	---	0.00	29.909 
02:15	70.9	70.9	70.9	70	60.6	0	0	---	0.00	29.907 
02:20	70.8	70.8	70.8	70	60.5	0	1	315	0.00	29.907 
02:25	70.8	70.8	70.8	70	60.5	0	0	---	0.00	29.907 
02:30	70.6	70.6	70.6	69	59.9	0	0	---	0.00	29.910 
02:35	70.4	70.4	70.4	69	59.7	0	0	---	0.00	29.910 
02:40	70.4	70.4	70.4	68	59.3	0	0	---	0.00	29.910 
02:45	70.4	70.4	70.4	68	59.3	0	1	315	0.00	29.910 
02:50	70.4	70.4	70.4	68	59.3	0	0	---	0.00	29.910 
02:55	70.3	70.3	70.3	68	59.2	0	0	---	0.00	29.910 
03:00	70.1	70.1	70.1	67	58.6	0	0	---	0.00	29.902 
03:05	70.1	70.1	70.1	67	58.6	0	0	---	0.00	29.902 
03:10	69.9	69.9	69.9	67	58.4	0	0	---	0.00	29.902 
03:15	69.9	69.9	69.9	68	58.8	0	1	315	0.00	29.896 
03:20	69.8	69.8	69.8	67	58.3	0	0	---	0.00	29.896 
03:25	69.6	69.6	69.6	67	58.1	0	0	---	0.00	29.896 
03:30	69.6	69.6	69.6	67	58.1	0	0	---	0.00	29.895 
03:35	69.6	69.6	69.6	67	58.1	0	0	---	0.00	29.895 
03:40	69.4	69.4	69.4	67	58.0	0	0	---	0.00	29.895 
03:45	69.4	69.4	69.4	66	57.5	0	0	---	0.00	29.898 
03:50	69.4	69.4	69.4	66	57.5	0	0	---	0.00	29.898 
03:55	69.3	69.3	69.3	66	57.4	0	0	---	0.00	29.898 
04:00	69.3	69.3	69.3	66	57.4	0	0	---	0.00	29.902 
04:05	69.1	69.1	69.1	65	56.8	0	0	---	0.00	29.902 
04:10	69.1	69.1	69.1	66	57.3	0	1	315	0.00	29.902 
04:15	69.1	69.1	69.1	65	56.8	0	1	315	0.00	29.900 
04:20	68.9	68.9	68.9	65	56.6	0	0	---	0.00	29.900 
04:25	68.9	68.9	68.9	65	56.6	0	0	---	0.00	29.900 
04:30	68.9	68.9	68.9	65	56.6	0	0	---	0.00	29.896 
04:35	68.8	68.8	68.8	64	56.1	0	0	---	0.00	29.896 
04:40	68.8	68.8	68.8	64	56.1	0	0	---	0.00	29.896 
04:45	68.8	68.8	68.8	65	56.5	0	0	---	0.00	29.896 
04:50	68.6	68.6	68.6	64	55.9	0	1	315	0.00	29.896 
04:55	68.6	68.6	68.6	64	55.9	0	0	---	0.00	29.896 
05:00	68.6	68.6	68.6	64	55.9	0	0	---	0.00	29.902 
05:05	68.4	68.4	68.4	64	55.7	0	1	315	0.00	29.902 
05:10	68.4	68.4	68.4	64	55.7	0	1	315	0.00	29.902 
05:15	68.4	68.4	68.4	65	56.2	0	0	---	0.00	29.902 
05:20	68.3	68.3	68.3	65	56.1	0	0	---	0.00	29.902 
05:25	68.3	68.3	68.3	65	56.1	0	0	---	0.00	29.902 
05:30	68.1	68.1	68.1	64	55.5	0	1	315	0.00	29.913 
05:35	68.1	68.1	68.1	65	55.9	0	0	---	0.00	29.913 
05:40	68.1	68.1	68.1	65	55.9	0	0	---	0.00	29.913 
05:45	67.9	67.9	67.9	65	55.7	0	0	---	0.00	29.914 
05:50	67.9	67.9	67.9	65	55.7	0	0	---	0.00	29.914 
05:55	67.8	67.8	67.8	65	55.6	0	0	---	0.00	29.914 
06:00	67.8	67.8	67.8	66	56.0	0	0	---	0.00	29.923 
06:05	67.6	67.6	67.6	66	55.8	0	0	---	0.00	29.923 
06:10	67.6	67.6	67.6	66	55.8	0	0	---	0.00	29.923 
06:15	67.4	67.4	67.4	66	55.6	0	1	315	0.00	29.928 
06:20	67.6	67.6	67.6	66	55.8	0	1	315	0.00	29.928 
06:25	67.6	67.6	67.6	66	55.8	0	1	315	0.00	29.928 
06:30	67.4	67.4	67.4	65	55.2	0	0	---	0.00	29.929 
06:35	67.4	67.4	67.4	66	55.6	0	0	---	0.00	29.929 
06:40	67.4	67.4	67.4	66	55.6	0	1	315	0.00	29.929 
06:45	67.4	67.4	67.4	65	55.2	0	1	315	0.00	29.931 
06:50	67.3	67.3	67.3	66	55.5	0	0	---	0.00	29.931 
06:55	67.3	67.3	67.3	66	55.5	0	1	315	0.00	29.931 
07:00	67.3	67.3	67.3	66	55.5	0	0	---	0.00	29.931 
07:05	67.3	67.3	67.3	67	56.0	0	0	---	0.00	29.931 
07:10	67.1	67.1	67.1	67	55.8	0	0	---	0.00	29.931 
07:15	67.1	67.1	67.1	66	55.4	0	1	315	0.00	29.933 
07:20	67.1	67.1	67.1	66	55.4	0	1	315	0.00	29.933 
07:25	67.3	67.3	67.3	65	55.1	0	0	---	0.00	29.933 
07:30	67.3	67.3	67.3	66	55.5	0	1	315	0.00	29.935 
07:35	67.1	67.1	67.1	66	55.4	0	1	315	0.00	29.935 
07:40	67.1	67.1	67.1	66	55.4	0	0	---	0.00	29.935 
07:45	66.9	66.9	66.9	66	55.2	0	0	---	0.00	29.937 
07:50	66.9	66.9	66.9	66	55.2	0	0	---	0.00	29.937 
07:55	67.1	67.1	67.1	67	55.8	0	1	315	0.00	29.937 
08:00	67.1	67.1	67.1	66	55.4	0	2	315	0.00	29.948 
08:05	67.3	67.3	67.3	66	55.5	0	1	315	0.00	29.948 
08:10	67.9	67.9	67.9	65	55.7	0	2	315	0.00	29.948 
08:15	68.4	68.4	68.4	64	55.7	0	2	315	0.00	29.950 
08:20	69.1	69.1	69.1	62	55.5	0	3	0	0.00	29.950 
08:25	69.6	69.6	69.6	61	55.5	0	3	315	0.00	29.950 
08:30	70.1	70.1	70.1	60	55.6	0	2	315	0.00	29.949 
08:35	70.4	70.4	70.4	60	55.8	1	2	315	0.00	29.949 
08:40	70.9	70.9	70.9	59	55.8	0	1	338	0.00	29.949 
08:45	71.5	71.5	71.5	57	55.5	0	1	22	0.00	29.949 
08:50	71.8	71.8	71.8	58	56.2	0	2	22	0.00	29.949 
08:55	72.3	72.3	72.3	57	56.2	0	1	22	0.00	29.949 
09:00	72.8	72.8	72.8	57	56.7	0	1	22	0.00	29.953 
09:05	73.2	73.2	73.2	56	56.5	0	2	22	0.00	29.953 
09:10	73.5	73.5	73.5	57	57.3	0	1	22	0.00	29.953 
09:15	74.4	74.4	74.4	55	57.2	0	2	22	0.00	29.958 
09:20	74.6	74.6	74.6	53	56.3	1	3	315	0.00	29.958 
09:25	74.6	74.6	74.6	52	55.8	0	2	315	0.00	29.958 
09:30	74.6	74.6	74.6	51	55.3	0	2	315	0.00	29.962 
09:35	74.7	74.7	74.7	51	55.4	0	1	315	0.00	29.962 
09:40	74.9	74.9	74.9	50	55.0	1	3	315	0.00	29.962 
09:45	75.4	75.4	77.8	52	56.5	0	2	315	0.00	29.959 
09:50	76.0	76.0	78.1	49	55.4	1	2	292	0.00	29.959 
09:55	76.5	76.5	78.3	49	55.9	1	2	292	0.00	29.959 
10:00	77.2	77.2	78.6	47	55.4	0	2	292	0.00	29.956 
10:05	77.7	77.7	78.9	47	55.8	0	2	292	0.00	29.956 
10:10	77.9	77.9	79.0	46	55.4	1	3	292	0.00	29.956 
10:15	77.9	77.9	78.9	44	54.2	1	3	292	0.00	29.955 
10:20	78.1	78.1	79.0	44	54.4	1	4	292	0.00	29.955 
10:25	78.3	78.3	79.0	42	53.3	1	4	315	0.00	29.955 
10:30	78.3	78.3	79.1	43	53.9	1	3	292	0.00	29.953 
10:35	78.6	78.6	79.4	45	55.5	0	2	292	0.00	29.953 
10:40	79.2	79.2	79.5	42	54.1	0	2	292	0.00	29.953 
10:45	79.6	79.6	79.7	40	53.1	0	0	---	0.00	29.952 
10:50	79.9	79.9	80.0	42	54.7	0	1	292	0.00	29.952 
10:55	79.8	79.8	79.7	39	52.6	2	3	292	0.00	29.952 
11:00	79.8	79.8	79.7	39	52.6	2	4	292	0.00	29.957 
11:05	79.8	79.8	79.6	38	51.9	1	3	292	0.00	29.957 
11:10	80.1	80.1	80.0	40	53.6	1	3	292	0.00	29.957 
11:15	80.7	80.7	80.2	38	52.7	1	3	292	0.00	29.959 
11:20	80.5	80.5	80.3	40	53.9	1	4	292	0.00	29.959 
11:25	80.9	80.9	80.7	41	55.0	1	2	292	0.00	29.959 
11:30	80.9	80.9	80.3	37	52.2	2	4	292	0.00	29.961 
11:35	81.2	81.2	80.7	39	53.9	1	4	292	0.00	29.961 
11:40	81.4	81.4	80.6	36	51.9	1	4	270	0.00	29.961 
11:45	81.4	81.4	80.5	35	51.1	2	5	270	0.00	29.958 
11:50	81.6	81.6	80.8	37	52.8	1	3	270	0.00	29.958 
11:55	81.6	81.6	80.7	36	52.0	2	5	270	0.00	29.958 
12:00	82.0	82.0	81.1	37	53.1	1	3	270	0.00	29.951 
12:05	82.0	82.0	80.9	35	51.6	1	3	22	0.00	29.951 
12:10	82.2	82.2	81.0	34	51.0	1	6	270	0.00	29.951 
12:15	82.0	82.0	80.7	32	49.2	2	4	315	0.00	29.952 
12:20	82.2	82.2	81.2	36	52.6	1	4	248	0.00	29.952 
12:25	82.8	82.8	81.6	35	52.3	1	2	248	0.00	29.952 
12:30	82.6	82.6	81.2	33	50.6	2	5	270	0.00	29.946 
12:35	82.6	82.6	81.0	31	48.9	2	6	270	0.00	29.946 
12:40	82.2	82.2	80.7	31	48.5	2	5	292	0.00	29.946 
12:45	82.2	82.2	80.9	33	50.2	1	4	292	0.00	29.946 
12:50	82.2	82.2	80.7	31	48.5	1	2	292	0.00	29.946 
12:55	82.6	82.6	81.2	33	50.6	1	5	292	0.00	29.946 
13:00	82.4	82.4	81.0	33	50.4	1	4	292	0.00	29.943 
13:05	82.8	82.8	81.8	37	53.8	1	6	315	0.00	29.943 
13:10	82.8	82.8	81.2	32	49.9	1	4	315	0.00	29.943 
13:15	83.0	83.0	81.2	30	48.3	1	4	315	0.00	29.945 
13:20	83.2	83.2	81.4	30	48.5	2	4	292	0.00	29.945 
13:25	83.2	83.2	81.7	33	51.1	2	4	270	0.00	29.945 
13:30	83.4	83.4	81.4	29	47.8	2	5	315	0.00	29.944 
13:35	83.6	83.6	81.7	30	48.9	2	4	270	0.00	29.944 
13:40	84.0	84.0	82.1	31	50.1	1	4	292	0.00	29.944 
13:45	84.0	84.0	82.1	31	50.1	1	4	292	0.00	29.940 
13:50	84.0	84.0	81.8	28	47.4	2	5	315	0.00	29.940 
13:55	84.1	84.1	82.2	31	50.2	1	3	315	0.00	29.940 
14:00	84.1	84.1	82.2	31	50.2	2	5	292	0.00	29.939 
14:05	84.3	84.3	82.4	31	50.3	0	2	292	0.00	29.939 
14:10	84.3	84.3	82.1	28	47.6	2	7	292	0.00	29.939 
14:15	84.0	84.0	82.0	30	49.2	2	5	315	0.00	29.942 
14:20	84.1	84.1	81.9	28	47.4	2	4	270	0.00	29.942 
14:25	84.5	84.5	82.3	29	48.7	2	6	270	0.00	29.942 
14:30	85.1	85.1	82.9	30	50.1	0	2	270	0.00	29.938 
14:35	85.5	85.5	83.3	30	50.5	1	3	270	0.00	29.938 
14:40	85.5	85.5	83.2	29	49.6	1	4	315	0.00	29.938 
14:45	85.3	85.3	82.8	27	47.5	1	4	315	0.00	29.932 
14:50	84.9	84.9	82.6	28	48.1	2	5	292	0.00	29.932 
14:55	84.7	84.7	82.3	27	47.0	1	5	292	0.00	29.932 
15:00	84.7	84.7	82.4	28	48.0	2	4	292	0.00	29.933 
15:05	85.1	85.1	82.6	27	47.3	1	4	292	0.00	29.933 
15:10	85.3	85.3	82.9	28	48.5	2	5	292	0.00	29.933 
15:15	85.1	85.1	82.7	28	48.3	1	4	292	0.00	29.932 
15:20	85.1	85.1	82.6	27	47.3	2	5	292	0.00	29.932 
15:25	85.1	85.1	82.5	26	46.3	2	4	292	0.00	29.932 
15:30	85.3	85.3	82.9	28	48.5	2	6	270	0.00	29.930 
15:35	85.5	85.5	82.9	26	46.7	1	3	292	0.00	29.930 
15:40	85.5	85.5	82.9	26	46.7	1	3	292	0.00	29.930 
15:45	86.1	86.1	83.5	27	48.2	1	4	315	0.00	29.931 
15:50	86.1	86.1	83.3	25	46.1	2	5	292	0.00	29.931 
15:55	85.9	85.9	83.1	25	46.0	1	4	270	0.00	29.931 
16:00	85.7	85.7	83.0	26	46.8	2	4	315	0.00	29.932 
16:05	86.1	86.1	83.5	27	48.2	1	3	270	0.00	29.932 
16:10	86.3	86.3	83.6	26	47.3	1	2	270	0.00	29.932 
16:15	86.1	86.1	83.6	28	49.1	2	5	292	0.00	29.927 
16:20	86.1	86.1	83.5	27	48.2	1	2	292	0.00	29.927 
16:25	86.1	86.1	83.5	27	48.2	1	3	292	0.00	29.927 
16:30	85.7	85.7	83.1	27	47.8	1	4	338	0.00	29.919 
16:35	85.9	85.9	83.3	27	48.0	1	4	315	0.00	29.919 
16:40	85.7	85.7	83.0	26	46.8	1	4	315	0.00	29.919 
16:45	85.7	85.7	82.9	24	44.7	0	2	315	0.00	29.919 
16:50	86.3	86.3	83.7	27	48.3	0	2	315	0.00	29.919 
16:55	86.7	86.7	84.0	27	48.7	1	3	315	0.00	29.919 
17:00	86.5	86.5	83.8	27	48.5	1	5	315	0.00	29.914 
17:05	86.3	86.3	83.7	27	48.3	1	3	270	0.00	29.914 
17:10	86.1	86.1	83.5	27	48.2	2	6	292	0.00	29.914 
17:15	86.1	86.1	83.6	28	49.1	1	5	292	0.00	29.915 
17:20	86.1	86.1	83.6	28	49.1	1	3	292	0.00	29.915 
17:25	86.1	86.1	83.6	28	49.1	1	4	315	0.00	29.915 
17:30	85.9	85.9	83.4	28	49.0	1	3	315	0.00	29.914 
17:35	85.9	85.9	83.3	27	48.0	0	2	292	0.00	29.914 
17:40	85.7	85.7	83.2	28	48.8	1	3	315	0.00	29.914 
17:45	85.9	85.9	83.3	27	48.0	1	4	315	0.00	29.913 
17:50	85.9	85.9	83.4	28	49.0	1	4	45	0.00	29.913 
17:55	85.7	85.7	83.1	27	47.8	1	4	270	0.00	29.913 
18:00	85.5	85.5	83.2	29	49.6	0	3	270	0.00	29.907 
18:05	85.1	85.1	82.9	30	50.1	1	3	90	0.00	29.907 
18:10	84.7	84.7	82.3	27	47.0	1	4	292	0.00	29.907 
18:15	84.5	84.5	82.6	32	51.4	1	2	292	0.00	29.906 
18:20	84.3	84.3	82.3	30	49.5	1	3	338	0.00	29.906 
18:25	84.1	84.1	82.3	32	51.0	0	1	338	0.00	29.906 
18:30	84.1	84.1	82.1	30	49.3	1	3	315	0.00	29.907 
18:35	84.1	84.1	82.3	32	51.0	0	2	315	0.00	29.907 
18:40	83.8	83.8	81.9	31	49.9	0	2	338	0.00	29.907 
18:45	83.8	83.8	82.1	32	50.8	0	3	338	0.00	29.906 
18:50	83.6	83.6	82.1	34	52.2	0	3	338	0.00	29.906 
18:55	83.4	83.4	81.9	34	52.1	0	3	135	0.00	29.906 
19:00	83.4	83.4	81.9	34	52.1	0	2	135	0.00	29.902 
19:05	83.2	83.2	81.7	33	51.1	0	2	135	0.00	29.902 
19:10	83.6	83.6	82.1	34	52.2	1	5	270	0.00	29.902 
19:15	83.6	83.6	82.1	34	52.2	0	3	292	0.00	29.900 
19:20	83.4	83.4	81.9	34	52.1	0	1	292	0.00	29.900 
19:25	83.2	83.2	81.8	34	51.9	0	2	292	0.00	29.900 
19:30	83.2	83.2	81.7	33	51.1	0	1	292	0.00	29.902 
19:35	83.2	83.2	81.7	33	51.1	0	1	292	0.00	29.902 
19:40	83.2	83.2	81.7	33	51.1	0	0	---	0.00	29.902 
19:45	83.0	83.0	81.4	32	50.1	0	2	292	0.00	29.903 
19:50	83.0	83.0	81.6	34	51.7	0	2	292	0.00	29.903 
19:55	82.6	82.6	81.3	34	51.4	0	1	292	0.00	29.903 
20:00	82.4	82.4	81.1	34	51.2	0	2	292	0.00	29.902 
20:05	82.2	82.2	81.0	34	51.0	0	1	292	0.00	29.902 
20:10	82.2	82.2	81.1	35	51.8	0	1	292	0.00	29.902 
20:15	82.2	82.2	81.1	35	51.8	0	1	292	0.00	29.897 
20:20	82.0	82.0	80.9	35	51.6	0	1	292	0.00	29.897 
20:25	81.8	81.8	81.0	37	53.0	0	0	---	0.00	29.897 
20:30	81.4	81.4	80.6	36	51.9	0	0	---	0.00	29.897 
20:35	81.2	81.2	80.6	38	53.1	0	1	292	0.00	29.897 
20:40	81.1	81.1	80.4	37	52.3	0	1	292	0.00	29.897 
20:45	80.7	80.7	80.2	37	52.0	0	1	292	0.00	29.899 
20:50	80.5	80.5	80.2	39	53.2	0	0	---	0.00	29.899 
20:55	79.9	79.9	79.8	39	52.7	0	0	---	0.00	29.899 
21:00	79.6	79.6	79.7	40	53.1	0	0	---	0.00	29.900 
21:05	79.0	79.0	79.4	41	53.3	0	0	---	0.00	29.900 
21:10	78.6	78.6	79.1	41	52.9	0	0	---	0.00	29.900 
21:15	78.1	78.1	78.9	42	53.1	0	0	---	0.00	29.898 
21:20	77.7	77.7	78.7	43	53.4	0	0	---	0.00	29.898 
21:25	77.4	77.4	78.6	44	53.8	0	0	---	0.00	29.898 
21:30	77.0	77.0	78.4	44	53.4	0	0	---	0.00	29.902 
21:35	76.7	76.7	78.3	44	53.1	0	0	---	0.00	29.902 
21:40	76.3	76.3	78.1	45	53.4	0	0	---	0.00	29.902 
21:45	76.0	76.0	78.0	46	53.7	0	0	---	0.00	29.913 
21:50	75.8	75.8	77.9	47	54.1	0	1	292	0.00	29.913 
21:55	75.6	75.6	77.9	48	54.5	0	0	---	0.00	29.913 
22:00	75.4	75.4	77.8	49	54.9	0	1	292	0.00	29.915 
22:05	75.4	75.4	77.8	50	55.4	0	0	---	0.00	29.915 
22:10	75.1	75.1	77.7	50	55.2	0	0	---	0.00	29.915 
22:15	74.7	74.7	74.7	51	55.4	0	0	---	0.00	29.914 
22:20	74.6	74.6	74.6	51	55.3	0	1	292	0.00	29.914 
22:25	74.4	74.4	74.4	52	55.6	0	1	292	0.00	29.914 
22:30	74.2	74.2	74.2	53	56.0	0	1	292	0.00	29.915 
22:35	73.9	73.9	73.9	54	56.2	0	0	---	0.00	29.915 
22:40	73.7	73.7	73.7	54	56.0	0	0	---	0.00	29.915 
22:45	73.3	73.3	73.3	55	56.1	0	0	---	0.00	29.919 
22:50	73.2	73.2	73.2	55	56.0	0	0	---	0.00	29.919 
22:55	72.8	72.8	72.8	56	56.2	0	0	---	0.00	29.919 
23:00	72.7	72.7	72.7	57	56.6	0	0	---	0.00	29.930 
23:05	72.5	72.5	72.5	57	56.4	0	0	---	0.00	29.930 
23:10	72.3	72.3	72.3	57	56.2	0	0	---	0.00	29.930 
23:15	72.0	72.0	72.0	58	56.4	0	0	---	0.00	29.933 
23:20	71.8	71.8	71.8	58	56.2	0	0	---	0.00	29.933 
23:25	71.6	71.6	71.6	58	56.0	0	0	---	0.00	29.933 
23:30	71.6	71.6	71.6	58	56.0	0	0	---	0.00	29.941 
23:35	71.5	71.5	71.5	58	55.9	0	0	---	0.00	29.941 
23:40	71.3	71.3	71.3	59	56.2	0	0	---	0.00	29.941 
23:45	71.1	71.1	71.1	59	56.0	0	0	---	0.00	29.946 
23:50	70.9	70.9	70.9	59	55.8	0	0	---	0.00	29.946 
23:55	70.9	70.9	70.9	60	56.3	0	0	---	0.00	29.946 

CoCoRaHS
IN-AL-39
A2 Web Hosting
Creative Commons License
GoDaddy
search engine by freefind advanced

loaded 2018-11-19 10:20:13 • last modified 2010-11-18 10:43:29
Privacy PolicyDisclaimer
• wx.awcolley.com is powered by PmWiki v.2002016 •
• all content (unless otherwise noted) © 2018 A W Colley